KLM380 EGPF-EIDW
Flight info
| Callsign | KLM380 |
|---|---|
| Flight time | 0h 52m |
| Altitude | 22000 |
| Route | NORBO L186 TRN DCT BLACA DCT NELBO P620 NIMAT NIMAT3R |
| Aircraft | A21N/M-SDE2E3FGHIRWXY/LB1 |
Departure
| Time | 2026-05-06 14:41 |
|---|---|
| Airport | Glasgow Airport (EGPF) |
Arrival
| Time | 2026-05-06 15:34 |
|---|---|
| Airport | Dublin Airport (EIDW) |
| Time | Latitude | Longitude | Altitude | Speed | Heading |
|---|---|---|---|---|---|
| 2026-05-06 14:22 | 55.86641 | -4.43286 | 34 ft | 0 kts | 253° |
| 2026-05-06 14:32 | 55.86646 | -4.43257 | 34 ft | 4 kts | 258° |
| 2026-05-06 14:32 | 55.86635 | -4.43216 | 32 ft | 4 kts | 338° |
| 2026-05-06 14:32 | 55.86627 | -4.43211 | 32 ft | 0 kts | 343° |
| 2026-05-06 14:37 | 55.86658 | -4.43227 | 32 ft | 16 kts | 343° |
| 2026-05-06 14:37 | 55.86773 | -4.43308 | 33 ft | 17 kts | 303° |
| 2026-05-06 14:37 | 55.86768 | -4.43508 | 33 ft | 17 kts | 252° |
| 2026-05-06 14:38 | 55.86734 | -4.43713 | 31 ft | 19 kts | 252° |
| 2026-05-06 14:38 | 55.86643 | -4.43921 | 32 ft | 23 kts | 226° |
| 2026-05-06 14:38 | 55.86535 | -4.44122 | 34 ft | 22 kts | 226° |
| 2026-05-06 14:38 | 55.86435 | -4.44307 | 35 ft | 21 kts | 227° |
| 2026-05-06 14:39 | 55.86336 | -4.44492 | 34 ft | 21 kts | 226° |
| 2026-05-06 14:39 | 55.86257 | -4.44687 | 33 ft | 17 kts | 279° |
| 2026-05-06 14:39 | 55.86278 | -4.44760 | 34 ft | 5 kts | 302° |
| 2026-05-06 14:39 | 55.86305 | -4.44805 | 35 ft | 9 kts | 319° |
| 2026-05-06 14:40 | 55.86350 | -4.44864 | 36 ft | 4 kts | 350° |
| 2026-05-06 14:40 | 55.86373 | -4.44852 | 36 ft | 5 kts | 32° |
| 2026-05-06 14:40 | 55.86385 | -4.44832 | 35 ft | 0 kts | 42° |
| 2026-05-06 14:40 | 55.86424 | -4.44761 | 36 ft | 28 kts | 46° |
| 2026-05-06 14:41 | 55.86691 | -4.44263 | 36 ft | 83 kts | 46° |
| 2026-05-06 14:41 | 55.87228 | -4.43261 | 32 ft | 141 kts | 46° |
| 2026-05-06 14:41 | 55.87923 | -4.41902 | 432 ft | 146 kts | 48° |
| 2026-05-06 14:41 | 55.88652 | -4.40520 | 879 ft | 158 kts | 47° |
| 2026-05-06 14:42 | 55.89433 | -4.39080 | 1390 ft | 165 kts | 48° |
| 2026-05-06 14:42 | 55.90250 | -4.37574 | 1825 ft | 179 kts | 48° |
| 2026-05-06 14:42 | 55.91169 | -4.35868 | 2093 ft | 203 kts | 47° |
| 2026-05-06 14:42 | 55.92208 | -4.33963 | 2350 ft | 226 kts | 45° |
| 2026-05-06 14:43 | 55.93574 | -4.32353 | 2561 ft | 255 kts | 18° |
| 2026-05-06 14:43 | 55.95363 | -4.32311 | 3156 ft | 265 kts | 340° |
| 2026-05-06 14:43 | 55.96854 | -4.34143 | 3977 ft | 263 kts | 305° |
| 2026-05-06 14:43 | 55.97520 | -4.37123 | 4731 ft | 261 kts | 274° |
| 2026-05-06 14:44 | 55.97575 | -4.40371 | 5526 ft | 262 kts | 266° |
| 2026-05-06 14:44 | 55.97298 | -4.43570 | 6383 ft | 260 kts | 251° |
| 2026-05-06 14:44 | 55.96607 | -4.46562 | 7222 ft | 261 kts | 244° |
| 2026-05-06 14:45 | 55.94748 | -4.52209 | 8858 ft | 267 kts | 233° |
| 2026-05-06 14:45 | 55.93590 | -4.54832 | 9709 ft | 271 kts | 231° |
| 2026-05-06 14:45 | 55.92402 | -4.57468 | 10416 ft | 278 kts | 232° |
| 2026-05-06 14:45 | 55.91149 | -4.60261 | 10731 ft | 299 kts | 232° |
| 2026-05-06 14:46 | 55.89808 | -4.63264 | 11059 ft | 320 kts | 232° |
| 2026-05-06 14:46 | 55.88373 | -4.66444 | 11465 ft | 336 kts | 231° |
| 2026-05-06 14:46 | 55.86850 | -4.69697 | 12046 ft | 346 kts | 229° |
| 2026-05-06 14:46 | 55.85025 | -4.72522 | 12800 ft | 352 kts | 213° |
| 2026-05-06 14:47 | 55.82754 | -4.74209 | 13585 ft | 360 kts | 194° |
| 2026-05-06 14:47 | 55.80246 | -4.74738 | 14305 ft | 366 kts | 186° |
| 2026-05-06 14:47 | 55.77687 | -4.74934 | 14963 ft | 371 kts | 185° |
| 2026-05-06 14:47 | 55.75096 | -4.75088 | 15619 ft | 375 kts | 185° |
| 2026-05-06 14:48 | 55.72476 | -4.75257 | 16250 ft | 378 kts | 185° |
| 2026-05-06 14:48 | 55.69839 | -4.75441 | 16864 ft | 382 kts | 185° |
| 2026-05-06 14:48 | 55.67167 | -4.75637 | 17435 ft | 386 kts | 185° |
| 2026-05-06 14:48 | 55.64468 | -4.75841 | 18018 ft | 390 kts | 185° |
| 2026-05-06 14:49 | 55.61746 | -4.76049 | 18496 ft | 393 kts | 186° |
| 2026-05-06 14:49 | 55.59008 | -4.76258 | 18858 ft | 395 kts | 186° |
| 2026-05-06 14:49 | 55.56256 | -4.76470 | 19227 ft | 397 kts | 186° |
| 2026-05-06 14:49 | 55.53482 | -4.76685 | 19517 ft | 400 kts | 186° |
| 2026-05-06 14:50 | 55.50698 | -4.76901 | 19763 ft | 402 kts | 186° |
| 2026-05-06 14:50 | 55.47889 | -4.77118 | 19979 ft | 405 kts | 186° |
| 2026-05-06 14:50 | 55.45069 | -4.77336 | 20025 ft | 406 kts | 186° |
| 2026-05-06 14:50 | 55.42240 | -4.77554 | 20016 ft | 407 kts | 186° |
| 2026-05-06 14:51 | 55.39413 | -4.77770 | 20026 ft | 407 kts | 186° |
| 2026-05-06 14:51 | 55.36587 | -4.77986 | 20026 ft | 404 kts | 186° |
| 2026-05-06 14:51 | 55.33788 | -4.78223 | 20018 ft | 403 kts | 188° |
| 2026-05-06 14:51 | 55.31047 | -4.79158 | 19537 ft | 400 kts | 201° |
| 2026-05-06 14:52 | 55.28465 | -4.80830 | 19074 ft | 391 kts | 205° |
| 2026-05-06 14:52 | 55.26024 | -4.82756 | 18484 ft | 387 kts | 208° |
| 2026-05-06 14:52 | 55.23631 | -4.84849 | 17822 ft | 384 kts | 210° |
| 2026-05-06 14:52 | 55.21281 | -4.86991 | 17255 ft | 378 kts | 210° |
| 2026-05-06 14:53 | 55.18969 | -4.89109 | 16728 ft | 372 kts | 210° |
| 2026-05-06 14:53 | 55.16692 | -4.91176 | 16243 ft | 366 kts | 210° |
| 2026-05-06 14:53 | 55.14442 | -4.93192 | 15747 ft | 360 kts | 209° |
| 2026-05-06 14:53 | 55.12226 | -4.95152 | 15260 ft | 354 kts | 209° |
| 2026-05-06 14:54 | 55.10036 | -4.97072 | 14788 ft | 350 kts | 209° |
| 2026-05-06 14:54 | 55.07871 | -4.98961 | 14296 ft | 345 kts | 209° |
| 2026-05-06 14:54 | 55.05735 | -5.00819 | 13811 ft | 342 kts | 208° |
| 2026-05-06 14:54 | 55.03618 | -5.02657 | 13308 ft | 337 kts | 208° |
| 2026-05-06 14:55 | 55.01532 | -5.04466 | 12842 ft | 333 kts | 208° |
| 2026-05-06 14:55 | 54.99467 | -5.06256 | 12377 ft | 330 kts | 208° |
| 2026-05-06 14:55 | 54.97421 | -5.08030 | 12069 ft | 329 kts | 208° |
| 2026-05-06 14:55 | 54.95363 | -5.09813 | 11812 ft | 332 kts | 208° |
| 2026-05-06 14:56 | 54.93301 | -5.11597 | 11556 ft | 330 kts | 208° |
| 2026-05-06 14:56 | 54.91252 | -5.13366 | 11301 ft | 327 kts | 208° |
| 2026-05-06 14:56 | 54.89201 | -5.15068 | 11034 ft | 327 kts | 202° |
| 2026-05-06 14:56 | 54.87052 | -5.16242 | 10794 ft | 328 kts | 197° |
| 2026-05-06 14:57 | 54.84847 | -5.17244 | 10546 ft | 328 kts | 195° |
| 2026-05-06 14:57 | 54.82629 | -5.18119 | 10297 ft | 326 kts | 193° |
| 2026-05-06 14:57 | 54.80413 | -5.18925 | 10053 ft | 324 kts | 193° |
| 2026-05-06 14:57 | 54.78225 | -5.19696 | 9800 ft | 315 kts | 193° |
| 2026-05-06 14:58 | 54.76117 | -5.20435 | 9537 ft | 303 kts | 192° |
| 2026-05-06 14:58 | 54.74088 | -5.21153 | 9274 ft | 292 kts | 192° |
| 2026-05-06 14:58 | 54.72135 | -5.21853 | 9009 ft | 282 kts | 193° |
| 2026-05-06 14:58 | 54.70244 | -5.22538 | 8746 ft | 273 kts | 193° |
| 2026-05-06 14:59 | 54.68400 | -5.23211 | 8479 ft | 271 kts | 193° |
| 2026-05-06 14:59 | 54.66554 | -5.23888 | 8223 ft | 270 kts | 192° |
| 2026-05-06 14:59 | 54.64718 | -5.24562 | 8051 ft | 270 kts | 192° |
| 2026-05-06 14:59 | 54.62879 | -5.25235 | 8030 ft | 271 kts | 193° |
| 2026-05-06 15:00 | 54.61038 | -5.25909 | 8031 ft | 270 kts | 193° |
| 2026-05-06 15:00 | 54.59202 | -5.26578 | 8034 ft | 269 kts | 193° |
| 2026-05-06 15:00 | 54.57374 | -5.27245 | 8036 ft | 268 kts | 193° |
| 2026-05-06 15:00 | 54.55547 | -5.27912 | 8038 ft | 269 kts | 193° |
| 2026-05-06 15:01 | 54.53712 | -5.28579 | 8034 ft | 270 kts | 192° |
| 2026-05-06 15:01 | 54.51869 | -5.29249 | 8034 ft | 271 kts | 192° |
| 2026-05-06 15:01 | 54.50030 | -5.29965 | 8028 ft | 270 kts | 197° |
| 2026-05-06 15:01 | 54.48268 | -5.31064 | 8036 ft | 269 kts | 203° |
| 2026-05-06 15:02 | 54.46553 | -5.32340 | 8033 ft | 268 kts | 205° |
| 2026-05-06 15:02 | 54.44865 | -5.33704 | 8038 ft | 269 kts | 206° |
| 2026-05-06 15:02 | 54.43186 | -5.35121 | 8037 ft | 270 kts | 207° |
| 2026-05-06 15:02 | 54.41505 | -5.36564 | 8028 ft | 270 kts | 207° |
| 2026-05-06 15:03 | 54.39827 | -5.38007 | 8031 ft | 269 kts | 207° |
| 2026-05-06 15:03 | 54.38175 | -5.39422 | 8030 ft | 269 kts | 208° |
| 2026-05-06 15:03 | 54.36504 | -5.40845 | 8025 ft | 268 kts | 207° |
| 2026-05-06 15:03 | 54.34827 | -5.42265 | 8030 ft | 268 kts | 207° |
| 2026-05-06 15:04 | 54.33150 | -5.43680 | 8032 ft | 270 kts | 207° |
| 2026-05-06 15:04 | 54.31461 | -5.45100 | 8031 ft | 269 kts | 207° |
| 2026-05-06 15:04 | 54.29782 | -5.46509 | 8033 ft | 269 kts | 207° |
| 2026-05-06 15:04 | 54.28108 | -5.47912 | 8032 ft | 267 kts | 207° |
| 2026-05-06 15:05 | 54.26435 | -5.49315 | 8034 ft | 268 kts | 207° |
| 2026-05-06 15:05 | 54.24759 | -5.50718 | 8033 ft | 269 kts | 207° |
| 2026-05-06 15:05 | 54.23074 | -5.52128 | 8035 ft | 270 kts | 207° |
| 2026-05-06 15:05 | 54.21391 | -5.53535 | 8031 ft | 269 kts | 207° |
| 2026-05-06 15:06 | 54.19714 | -5.54936 | 8029 ft | 267 kts | 207° |
| 2026-05-06 15:06 | 54.18043 | -5.56331 | 8025 ft | 267 kts | 207° |
| 2026-05-06 15:06 | 54.16369 | -5.57727 | 8026 ft | 268 kts | 207° |
| 2026-05-06 15:06 | 54.14688 | -5.59128 | 8032 ft | 270 kts | 207° |
| 2026-05-06 15:07 | 54.13005 | -5.60529 | 8027 ft | 269 kts | 207° |
| 2026-05-06 15:07 | 54.11323 | -5.61928 | 8029 ft | 269 kts | 207° |
| 2026-05-06 15:07 | 54.09640 | -5.63327 | 8029 ft | 269 kts | 207° |
| 2026-05-06 15:07 | 54.07956 | -5.64726 | 8034 ft | 270 kts | 207° |
| 2026-05-06 15:08 | 54.06263 | -5.66133 | 8031 ft | 271 kts | 207° |
| 2026-05-06 15:08 | 54.04589 | -5.67521 | 8030 ft | 271 kts | 208° |
| 2026-05-06 15:08 | 54.02875 | -5.68941 | 8029 ft | 271 kts | 207° |
| 2026-05-06 15:08 | 54.01208 | -5.70320 | 8026 ft | 270 kts | 207° |
| 2026-05-06 15:09 | 53.99518 | -5.71719 | 8020 ft | 270 kts | 207° |
| 2026-05-06 15:09 | 53.97819 | -5.73080 | 8022 ft | 271 kts | 204° |
| 2026-05-06 15:09 | 53.96022 | -5.74047 | 8024 ft | 272 kts | 192° |
| 2026-05-06 15:09 | 53.94137 | -5.74419 | 8022 ft | 273 kts | 185° |
| 2026-05-06 15:10 | 53.92237 | -5.74572 | 8024 ft | 274 kts | 184° |
| 2026-05-06 15:10 | 53.90333 | -5.74689 | 8023 ft | 273 kts | 185° |
| 2026-05-06 15:10 | 53.88438 | -5.74809 | 8022 ft | 273 kts | 184° |
| 2026-05-06 15:10 | 53.86536 | -5.74934 | 8024 ft | 274 kts | 185° |
| 2026-05-06 15:11 | 53.84633 | -5.75064 | 8019 ft | 274 kts | 184° |
| 2026-05-06 15:11 | 53.82721 | -5.75197 | 8025 ft | 275 kts | 184° |
| 2026-05-06 15:11 | 53.81456 | -5.75285 | 8025 ft | 275 kts | 184° |
| 2026-05-06 15:11 | 53.79541 | -5.75418 | 8021 ft | 275 kts | 184° |
| 2026-05-06 15:12 | 53.77629 | -5.75552 | 8017 ft | 275 kts | 185° |
| 2026-05-06 15:12 | 53.75720 | -5.75686 | 8020 ft | 275 kts | 185° |
| 2026-05-06 15:12 | 53.73811 | -5.75821 | 8022 ft | 274 kts | 184° |
| 2026-05-06 15:12 | 53.71902 | -5.75956 | 8021 ft | 275 kts | 185° |
| 2026-05-06 15:13 | 53.69992 | -5.76116 | 8017 ft | 274 kts | 187° |
| 2026-05-06 15:13 | 53.68122 | -5.76697 | 8013 ft | 273 kts | 199° |
| 2026-05-06 15:13 | 53.66410 | -5.78017 | 8017 ft | 270 kts | 214° |
| 2026-05-06 15:13 | 53.64983 | -5.80036 | 8016 ft | 268 kts | 229° |
| 2026-05-06 15:14 | 53.63929 | -5.82601 | 8014 ft | 267 kts | 244° |
| 2026-05-06 15:14 | 53.63290 | -5.85527 | 8009 ft | 267 kts | 255° |
| 2026-05-06 15:14 | 53.62861 | -5.88584 | 8010 ft | 268 kts | 257° |
| 2026-05-06 15:14 | 53.62467 | -5.91666 | 8008 ft | 270 kts | 257° |
| 2026-05-06 15:15 | 53.62071 | -5.94748 | 8000 ft | 269 kts | 257° |
| 2026-05-06 15:15 | 53.61669 | -5.97821 | 8004 ft | 269 kts | 257° |
| 2026-05-06 15:15 | 53.61264 | -6.00880 | 8010 ft | 267 kts | 257° |
| 2026-05-06 15:15 | 53.60856 | -6.03927 | 7995 ft | 267 kts | 257° |
| 2026-05-06 15:16 | 53.60445 | -6.06985 | 7993 ft | 268 kts | 257° |
| 2026-05-06 15:16 | 53.60032 | -6.10047 | 7998 ft | 269 kts | 257° |
| 2026-05-06 15:16 | 53.59617 | -6.13115 | 7992 ft | 266 kts | 257° |
| 2026-05-06 15:16 | 53.59215 | -6.16075 | 7995 ft | 253 kts | 257° |
| 2026-05-06 15:17 | 53.58827 | -6.18933 | 8006 ft | 249 kts | 257° |
| 2026-05-06 15:17 | 53.58440 | -6.21774 | 8003 ft | 249 kts | 257° |
| 2026-05-06 15:17 | 53.58051 | -6.24617 | 7984 ft | 249 kts | 257° |
| 2026-05-06 15:17 | 53.57662 | -6.27462 | 7981 ft | 250 kts | 257° |
| 2026-05-06 15:18 | 53.57276 | -6.30274 | 7979 ft | 250 kts | 257° |
| 2026-05-06 15:18 | 53.56910 | -6.33139 | 7980 ft | 251 kts | 262° |
| 2026-05-06 15:18 | 53.56986 | -6.36047 | 7979 ft | 250 kts | 286° |
| 2026-05-06 15:18 | 53.57858 | -6.38559 | 7983 ft | 252 kts | 315° |
| 2026-05-06 15:19 | 53.59294 | -6.40282 | 7993 ft | 257 kts | 328° |
| 2026-05-06 15:19 | 53.60871 | -6.41728 | 7995 ft | 256 kts | 329° |
| 2026-05-06 15:19 | 53.62410 | -6.43082 | 8005 ft | 244 kts | 330° |
| 2026-05-06 15:19 | 53.63902 | -6.44438 | 7990 ft | 243 kts | 325° |
| 2026-05-06 15:20 | 53.65159 | -6.46282 | 7976 ft | 239 kts | 306° |
| 2026-05-06 15:20 | 53.66087 | -6.48596 | 7979 ft | 238 kts | 299° |
| 2026-05-06 15:20 | 53.66927 | -6.51003 | 7983 ft | 239 kts | 298° |
| 2026-05-06 15:20 | 53.67759 | -6.53433 | 7981 ft | 239 kts | 298° |
| 2026-05-06 15:21 | 53.68590 | -6.55855 | 7986 ft | 238 kts | 298° |
| 2026-05-06 15:21 | 53.69389 | -6.58300 | 7986 ft | 237 kts | 291° |
| 2026-05-06 15:21 | 53.69792 | -6.60963 | 7991 ft | 234 kts | 273° |
| 2026-05-06 15:21 | 53.69840 | -6.63709 | 7990 ft | 235 kts | 268° |
| 2026-05-06 15:22 | 53.69812 | -6.66466 | 7979 ft | 235 kts | 268° |
| 2026-05-06 15:22 | 53.69776 | -6.69222 | 7970 ft | 235 kts | 268° |
| 2026-05-06 15:22 | 53.69743 | -6.71975 | 7977 ft | 235 kts | 268° |
| 2026-05-06 15:22 | 53.69667 | -6.74719 | 7974 ft | 234 kts | 261° |
| 2026-05-06 15:23 | 53.69174 | -6.77315 | 7984 ft | 234 kts | 243° |
| 2026-05-06 15:23 | 53.68368 | -6.79697 | 7971 ft | 235 kts | 238° |
| 2026-05-06 15:23 | 53.67506 | -6.82006 | 7970 ft | 236 kts | 237° |
| 2026-05-06 15:23 | 53.66627 | -6.84340 | 7976 ft | 236 kts | 237° |
| 2026-05-06 15:24 | 53.65750 | -6.86677 | 7975 ft | 236 kts | 238° |
| 2026-05-06 15:24 | 53.64832 | -6.88960 | 7969 ft | 236 kts | 230° |
| 2026-05-06 15:24 | 53.63583 | -6.90735 | 7966 ft | 236 kts | 212° |
| 2026-05-06 15:24 | 53.62144 | -6.92074 | 7970 ft | 237 kts | 208° |
| 2026-05-06 15:25 | 53.60670 | -6.93312 | 7966 ft | 237 kts | 206° |
| 2026-05-06 15:25 | 53.59095 | -6.94126 | 7712 ft | 238 kts | 187° |
| 2026-05-06 15:25 | 53.57468 | -6.93758 | 7263 ft | 239 kts | 159° |
| 2026-05-06 15:25 | 53.56133 | -6.92130 | 6871 ft | 240 kts | 130° |
| 2026-05-06 15:26 | 53.55405 | -6.89627 | 6487 ft | 242 kts | 104° |
| 2026-05-06 15:26 | 53.55167 | -6.86832 | 6073 ft | 241 kts | 97° |
| 2026-05-06 15:26 | 53.55040 | -6.84026 | 5676 ft | 240 kts | 95° |
| 2026-05-06 15:26 | 53.54920 | -6.81244 | 5285 ft | 238 kts | 95° |
| 2026-05-06 15:27 | 53.54793 | -6.78485 | 4896 ft | 236 kts | 96° |
| 2026-05-06 15:27 | 53.54657 | -6.75745 | 4484 ft | 234 kts | 96° |
| 2026-05-06 15:27 | 53.54517 | -6.73024 | 4119 ft | 233 kts | 96° |
| 2026-05-06 15:27 | 53.54190 | -6.70347 | 3981 ft | 235 kts | 114° |
| 2026-05-06 15:28 | 53.53220 | -6.68210 | 3965 ft | 231 kts | 146° |
| 2026-05-06 15:28 | 53.51746 | -6.67284 | 3969 ft | 227 kts | 177° |
| 2026-05-06 15:28 | 53.50175 | -6.67330 | 3965 ft | 226 kts | 186° |
| 2026-05-06 15:28 | 53.48605 | -6.67520 | 3962 ft | 227 kts | 181° |
| 2026-05-06 15:29 | 53.47112 | -6.66753 | 3967 ft | 231 kts | 144° |
| 2026-05-06 15:29 | 53.46100 | -6.64656 | 3974 ft | 235 kts | 120° |
| 2026-05-06 15:29 | 53.45570 | -6.62053 | 3967 ft | 237 kts | 100° |
| 2026-05-06 15:29 | 53.45412 | -6.59300 | 3954 ft | 238 kts | 95° |
| 2026-05-06 15:30 | 53.45300 | -6.56535 | 3716 ft | 236 kts | 96° |
| 2026-05-06 15:30 | 53.45153 | -6.53866 | 3408 ft | 223 kts | 97° |
| 2026-05-06 15:30 | 53.45005 | -6.51339 | 3055 ft | 212 kts | 96° |
| 2026-05-06 15:30 | 53.44874 | -6.48951 | 2745 ft | 200 kts | 96° |
| 2026-05-06 15:31 | 53.44748 | -6.46666 | 2477 ft | 193 kts | 97° |
| 2026-05-06 15:31 | 53.44627 | -6.44469 | 2208 ft | 186 kts | 97° |
| 2026-05-06 15:31 | 53.44511 | -6.42376 | 1962 ft | 174 kts | 96° |
| 2026-05-06 15:32 | 53.44307 | -6.38693 | 1540 ft | 145 kts | 97° |
| 2026-05-06 15:32 | 53.44216 | -6.37057 | 1339 ft | 140 kts | 96° |
| 2026-05-06 15:32 | 53.44126 | -6.35433 | 1150 ft | 139 kts | 96° |
| 2026-05-06 15:32 | 53.44037 | -6.33820 | 953 ft | 138 kts | 95° |
| 2026-05-06 15:33 | 53.43948 | -6.32225 | 777 ft | 137 kts | 96° |
| 2026-05-06 15:33 | 53.43861 | -6.30641 | 577 ft | 136 kts | 95° |
| 2026-05-06 15:33 | 53.43780 | -6.29073 | 406 ft | 135 kts | 95° |
| 2026-05-06 15:33 | 53.43692 | -6.27529 | 248 ft | 133 kts | 97° |
| 2026-05-06 15:34 | 53.43610 | -6.26131 | 231 ft | 108 kts | 96° |
| 2026-05-06 15:34 | 53.43565 | -6.25291 | 227 ft | 51 kts | 94° |
| 2026-05-06 15:34 | 53.43538 | -6.24757 | 228 ft | 39 kts | 95° |
| 2026-05-06 15:34 | 53.43499 | -6.24543 | 227 ft | 5 kts | 156° |
| 2026-05-06 15:35 | 53.43453 | -6.24552 | 227 ft | 8 kts | 189° |
| 2026-05-06 15:35 | 53.43398 | -6.24563 | 228 ft | 10 kts | 184° |
| 2026-05-06 15:35 | 53.43352 | -6.24490 | 228 ft | 11 kts | 102° |
| 2026-05-06 15:35 | 53.43327 | -6.24416 | 228 ft | 6 kts | 146° |
| 2026-05-06 15:36 | 53.43283 | -6.24405 | 228 ft | 11 kts | 186° |
| 2026-05-06 15:36 | 53.43210 | -6.24427 | 228 ft | 7 kts | 218° |
| 2026-05-06 15:36 | 53.43194 | -6.24532 | 228 ft | 13 kts | 273° |
| 2026-05-06 15:36 | 53.43200 | -6.24675 | 228 ft | 12 kts | 274° |
| 2026-05-06 15:37 | 53.43220 | -6.24741 | 228 ft | 2 kts | 335° |
| 2026-05-06 15:37 | 53.43242 | -6.24739 | 228 ft | 7 kts | 2° |
| 2026-05-06 15:37 | 53.43278 | -6.24735 | 228 ft | 1 kts | 5° |
| 2026-05-06 15:37 | 53.43283 | -6.24734 | 228 ft | 0 kts | 5° |